Time;durP1;ratioP1;P1;durP2;ratioP2;P2;SDS_P1;SDS_P2;PMS_P1;PMS_P2;Temp;Humidity;BMP_temperature;BMP_pressure;BME280_temperature;BME280_humidity;BME280_pressure;Samples;Min_cycle;Max_cycle;Signal;HPM_P1;HPM_P2
2023/03/14 00:01:14;;;;;;;1.17;0.80;;;18.30;46.10;;;;;;6142717;23;20184;-86
2023/03/14 00:03:48;;;;;;;0.85;0.75;;;18.30;46.30;;;;;;6192614;23;20588;-85
2023/03/14 00:06:17;;;;;;;0.60;0.60;;;18.30;46.20;;;;;;6192396;23;20184;-87
2023/03/14 00:08:43;;;;;;;2.65;0.82;;;18.30;46.10;;;;;;6142958;23;20160;-85
2023/03/14 00:11:14;;;;;;;1.77;0.50;;;18.30;46.30;;;;;;6145621;23;20561;-87
2023/03/14 00:13:48;;;;;;;0.98;0.68;;;18.30;46.10;;;;;;6145269;23;20146;-86
2023/03/14 00:16:26;;;;;;;1.00;0.60;;;18.30;46.10;;;;;;6169057;23;20146;-85
2023/03/14 00:19:00;;;;;;;1.73;0.80;;;18.30;46.10;;;;;;6169553;23;20142;-85
2023/03/14 00:21:29;;;;;;;1.42;0.65;;;18.30;46.00;;;;;;6169291;23;20613;-85
2023/03/14 00:23:57;;;;;;;2.28;0.80;;;18.30;46.00;;;;;;6169055;23;20146;-86
2023/03/14 00:26:27;;;;;;;1.67;0.68;;;18.30;46.00;;;;;;6194285;23;20131;-86
2023/03/14 00:28:56;;;;;;;1.33;0.70;;;18.30;45.90;;;;;;6169609;23;20153;-86
2023/03/14 00:31:22;;;;;;;1.13;0.70;;;18.30;45.90;;;;;;6194143;23;20180;-86
2023/03/14 00:33:52;;;;;;;1.05;0.60;;;18.30;46.00;;;;;;6174926;23;20152;-86
2023/03/14 00:36:21;;;;;;;1.10;0.70;;;18.30;46.00;;;;;;6174340;23;20145;-86
2023/03/14 00:38:50;;;;;;;0.93;0.70;;;18.30;46.10;;;;;;6198820;23;20576;-86
2023/03/14 00:41:23;;;;;;;2.25;0.63;;;18.20;46.20;;;;;;6223850;23;20189;-86
2023/03/14 00:43:49;;;;;;;1.10;0.70;;;18.30;46.20;;;;;;6173840;23;20146;-86
2023/03/14 00:46:16;;;;;;;2.70;0.80;;;18.20;46.10;;;;;;6174544;23;20146;-86
2023/03/14 00:48:44;;;;;;;1.23;0.70;;;18.20;46.10;;;;;;6198865;23;20134;-86
2023/03/14 00:51:13;;;;;;;0.80;0.70;;;18.20;46.30;;;;;;6174675;23;20465;-85
2023/03/14 00:53:40;;;;;;;0.75;0.75;;;18.20;46.10;;;;;;6174864;23;20643;-85
2023/03/14 00:56:09;;;;;;;1.50;0.77;;;18.20;46.30;;;;;;6199404;23;20210;-85
2023/03/14 00:58:36;;;;;;;1.77;0.77;;;18.20;46.10;;;;;;6174489;23;20171;-85
2023/03/14 01:01:07;;;;;;;1.05;0.90;;;18.20;46.30;;;;;;6173959;23;20193;-86
2023/03/14 01:03:32;;;;;;;1.48;0.80;;;18.20;46.30;;;;;;6174666;23;20142;-86
2023/03/14 01:06:16;;;;;;;0.80;0.75;;;18.20;46.30;;;;;;6174078;23;20148;-86
2023/03/14 01:08:42;;;;;;;2.08;1.00;;;18.20;46.00;;;;;;6199443;23;20220;-86
2023/03/14 01:11:10;;;;;;;1.77;0.70;;;18.20;46.00;;;;;;6199013;23;20133;-86
2023/03/14 01:13:39;;;;;;;1.98;0.68;;;18.30;46.10;;;;;;6198948;23;20220;-86
2023/03/14 01:16:11;;;;;;;1.02;0.70;;;18.20;46.00;;;;;;6198845;23;20153;-86
2023/03/14 01:18:40;;;;;;;1.30;0.70;;;18.20;46.00;;;;;;6198542;23;20155;-86
2023/03/14 01:21:12;;;;;;;1.15;0.70;;;18.20;46.30;;;;;;6197947;23;20160;-86
2023/03/14 01:23:45;;;;;;;1.65;0.80;;;18.20;46.40;;;;;;6174088;23;20146;-86
2023/03/14 01:26:13;;;;;;;0.85;0.63;;;18.20;46.20;;;;;;6198656;23;20257;-86
2023/03/14 01:28:38;;;;;;;1.45;0.70;;;18.20;46.40;;;;;;6174803;23;20195;-85
2023/03/14 01:31:14;;;;;;;2.25;0.70;;;18.10;46.20;;;;;;6198634;23;20565;-86
2023/03/14 01:33:40;;;;;;;2.00;0.70;;;18.10;46.40;;;;;;6198219;23;20145;-86
2023/03/14 01:36:09;;;;;;;1.48;0.80;;;18.10;46.40;;;;;;6198100;23;20145;-86
2023/03/14 01:38:38;;;;;;;2.00;0.98;;;18.20;46.10;;;;;;6173667;23;20208;-86
2023/03/14 01:41:05;;;;;;;1.42;0.68;;;18.20;46.20;;;;;;6198185;23;20200;-85
2023/03/14 01:43:33;;;;;;;1.20;0.90;;;18.10;46.20;;;;;;6198083;23;20552;-85
2023/03/14 01:46:26;;;;;;;1.95;0.70;;;18.10;46.30;;;;;;6199060;23;20184;-86
2023/03/14 01:49:10;;;;;;;2.10;0.80;;;18.10;46.40;;;;;;6250237;23;20176;-86
2023/03/14 01:51:59;;;;;;;2.85;0.75;;;18.10;46.20;;;;;;6197746;23;20152;-85
2023/03/14 01:54:33;;;;;;;2.17;0.80;;;18.20;46.20;;;;;;6198140;23;20149;-85
2023/03/14 01:57:15;;;;;;;2.70;0.95;;;18.10;46.20;;;;;;6197618;23;20149;-86
2023/03/14 01:59:45;;;;;;;0.77;0.60;;;18.10;46.30;;;;;;6198058;23;20149;-86
2023/03/14 02:02:11;;;;;;;0.93;0.73;;;18.10;46.20;;;;;;6174402;23;20179;-85
2023/03/14 02:04:38;;;;;;;3.08;1.02;;;18.10;46.40;;;;;;6198139;23;20145;-85
2023/03/14 02:07:11;;;;;;;1.88;0.70;;;18.20;46.50;;;;;;6173796;23;20146;-86
2023/03/14 02:09:39;;;;;;;0.63;0.55;;;18.10;46.40;;;;;;6198117;23;20130;-86
2023/03/14 02:12:07;;;;;;;1.67;0.63;;;18.00;46.50;;;;;;6197344;23;20165;-85
2023/03/14 02:14:37;;;;;;;1.00;0.80;;;18.10;46.40;;;;;;6198066;23;20137;-86
2023/03/14 02:17:07;;;;;;;1.08;0.70;;;18.10;46.40;;;;;;6222710;23;20130;-85
2023/03/14 02:19:49;;;;;;;0.88;0.55;;;18.10;46.30;;;;;;6197099;23;20146;-85
2023/03/14 02:22:16;;;;;;;0.98;0.70;;;18.10;46.40;;;;;;6197135;23;20173;-85
2023/03/14 02:24:56;;;;;;;1.10;0.80;;;18.10;46.40;;;;;;6172483;23;20153;-85
2023/03/14 02:27:25;;;;;;;1.45;0.68;;;18.10;46.40;;;;;;6199124;23;20137;-85
2023/03/14 02:30:15;;;;;;;0.93;0.80;;;18.10;46.40;;;;;;6173215;23;20176;-85
2023/03/14 02:32:43;;;;;;;0.88;0.60;;;18.10;46.40;;;;;;6197561;23;20141;-85
2023/03/14 02:35:14;;;;;;;1.42;0.70;;;18.10;46.30;;;;;;6173118;23;20221;-85
2023/03/14 02:37:48;;;;;;;2.03;0.73;;;18.10;46.40;;;;;;6197607;23;20141;-85
2023/03/14 02:40:14;;;;;;;0.57;0.57;;;18.00;46.50;;;;;;6172040;23;20197;-86
2023/03/14 02:42:44;;;;;;;2.80;0.80;;;18.00;46.50;;;;;;6197459;23;20233;-86
2023/03/14 02:45:34;;;;;;;1.02;0.70;;;18.00;46.50;;;;;;6197738;23;20142;-86
2023/03/14 02:48:06;;;;;;;1.88;0.80;;;18.00;46.50;;;;;;6201744;23;20126;-86
2023/03/14 02:50:33;;;;;;;3.40;0.80;;;18.00;46.70;;;;;;6197862;23;20138;-87
2023/03/14 02:53:02;;;;;;;1.23;0.88;;;18.00;46.70;;;;;;6197074;23;20157;-85
2023/03/14 02:55:29;;;;;;;2.15;0.93;;;18.00;46.70;;;;;;6196917;23;20153;-85
2023/03/14 02:57:55;;;;;;;1.65;0.80;;;18.00;46.60;;;;;;6172571;23;20149;-85
2023/03/14 03:00:24;;;;;;;2.47;0.77;;;18.00;46.60;;;;;;6172165;23;20175;-86
2023/03/14 03:02:50;;;;;;;2.25;0.70;;;18.10;47.20;;;;;;6249206;23;20134;-85
2023/03/14 03:05:16;;;;;;;1.00;0.70;;;18.00;46.40;;;;;;6172571;23;20175;-86
2023/03/14 03:07:44;;;;;;;0.90;0.60;;;18.00;46.40;;;;;;6196635;23;20156;-86
2023/03/14 03:10:11;;;;;;;1.15;0.70;;;18.00;46.50;;;;;;6172399;23;20149;-86
2023/03/14 03:12:39;;;;;;;1.55;0.73;;;18.00;46.60;;;;;;6222353;23;20152;-86
2023/03/14 03:15:08;;;;;;;2.13;0.80;;;18.00;46.60;;;;;;6172116;23;20462;-86
2023/03/14 03:17:37;;;;;;;1.23;0.70;;;17.90;46.60;;;;;;6221822;23;20133;-86
2023/03/14 03:20:08;;;;;;;1.48;0.90;;;17.90;46.60;;;;;;6172704;23;20153;-85
2023/03/14 03:22:37;;;;;;;1.20;0.60;;;18.00;46.70;;;;;;6197831;23;20188;-86
2023/03/14 03:25:08;;;;;;;1.50;0.60;;;18.00;46.80;;;;;;6172581;23;20573;-85
2023/03/14 03:27:38;;;;;;;2.72;0.80;;;17.90;46.70;;;;;;6249346;23;20579;-86
2023/03/14 03:30:05;;;;;;;1.45;0.77;;;17.90;46.60;;;;;;6249165;23;20140;-86
2023/03/14 03:32:31;;;;;;;1.92;0.60;;;17.90;46.60;;;;;;6196939;23;20165;-86
2023/03/14 03:34:58;;;;;;;1.35;0.65;;;17.90;46.60;;;;;;6172568;23;20156;-86
2023/03/14 03:37:24;;;;;;;1.65;0.80;;;17.90;46.80;;;;;;6172069;23;20161;-86
2023/03/14 03:39:51;;;;;;;1.73;0.77;;;17.90;46.70;;;;;;6195832;23;20222;-86
2023/03/14 03:42:27;;;;;;;1.50;0.80;;;17.90;46.70;;;;;;6197017;23;20169;-86
2023/03/14 03:44:55;;;;;;;1.15;0.70;;;17.90;46.70;;;;;;6196995;23;20141;-85
2023/03/14 03:47:31;;;;;;;1.52;0.85;;;17.90;46.60;;;;;;6172387;23;20152;-86
2023/03/14 03:49:56;;;;;;;1.42;0.70;;;17.90;46.70;;;;;;6221731;23;20183;-86
2023/03/14 03:52:28;;;;;;;0.95;0.50;;;17.90;46.60;;;;;;6197370;23;20138;-86
2023/03/14 03:54:58;;;;;;;1.60;0.52;;;17.90;46.70;;;;;;6222229;23;20217;-86
2023/03/14 03:57:28;;;;;;;0.88;0.68;;;17.90;46.70;;;;;;6197291;23;20149;-86
2023/03/14 03:59:53;;;;;;;1.55;0.85;;;17.80;46.60;;;;;;6221941;23;20684;-86
2023/03/14 04:02:30;;;;;;;1.25;0.80;;;17.80;47.30;;;;;;6222371;23;20185;-86
2023/03/14 04:04:58;;;;;;;0.85;0.63;;;17.80;46.70;;;;;;6222000;23;20129;-85
2023/03/14 04:07:24;;;;;;;1.52;0.60;;;17.80;46.70;;;;;;6197961;23;20125;-85
2023/03/14 04:09:50;;;;;;;1.60;0.90;;;17.90;46.80;;;;;;6197725;23;20208;-86
2023/03/14 04:12:18;;;;;;;1.15;0.77;;;17.90;46.90;;;;;;6172758;23;20182;-86
2023/03/14 04:14:45;;;;;;;2.17;0.80;;;17.90;46.70;;;;;;6197988;23;20209;-85
2023/03/14 04:17:11;;;;;;;0.82;0.75;;;17.80;46.70;;;;;;6172894;23;20141;-85
2023/03/14 04:19:37;;;;;;;1.85;0.60;;;17.90;46.80;;;;;;6172269;23;20267;-85
2023/03/14 04:22:07;;;;;;;0.85;0.70;;;17.90;46.70;;;;;;6197650;23;20201;-86
2023/03/14 04:24:33;;;;;;;0.93;0.60;;;17.90;46.70;;;;;;6197349;23;20133;-85
2023/03/14 04:27:02;;;;;;;1.60;0.80;;;17.90;46.60;;;;;;6172359;23;20176;-86
2023/03/14 04:29:29;;;;;;;1.75;1.00;;;17.90;46.70;;;;;;6173203;23;20137;-85
2023/03/14 04:31:55;;;;;;;0.63;0.50;;;17.90;46.60;;;;;;6197551;23;20165;-85
2023/03/14 04:34:21;;;;;;;1.20;0.65;;;17.90;46.80;;;;;;6172416;23;20216;-86
2023/03/14 04:36:48;;;;;;;1.33;0.75;;;17.90;46.80;;;;;;6172519;23;20241;-86
2023/03/14 04:39:13;;;;;;;0.57;0.52;;;17.80;46.80;;;;;;6172435;22;20146;-86
2023/03/14 04:41:40;;;;;;;2.28;0.70;;;17.80;46.80;;;;;;6173217;23;20184;-86
2023/03/14 04:44:05;;;;;;;1.17;0.68;;;17.80;46.70;;;;;;6173453;23;20149;-86
2023/03/14 04:46:34;;;;;;;1.23;0.90;;;17.80;46.80;;;;;;6222768;23;20134;-86
2023/03/14 04:49:05;;;;;;;2.00;0.80;;;17.80;46.80;;;;;;6172358;23;20150;-86
2023/03/14 04:51:43;;;;;;;1.95;0.65;;;17.90;46.80;;;;;;6197756;23;20195;-85
2023/03/14 04:54:11;;;;;;;0.47;0.40;;;17.80;46.70;;;;;;6198510;23;20200;-85
2023/03/14 04:56:43;;;;;;;0.93;0.80;;;17.80;46.60;;;;;;6174323;23;20527;-85
2023/03/14 04:59:17;;;;;;;0.93;0.75;;;17.80;46.60;;;;;;6199467;23;20153;-85
2023/03/14 05:01:45;;;;;;;1.38;0.60;;;17.80;46.70;;;;;;6199177;23;20205;-86
2023/03/14 05:04:18;;;;;;;1.08;0.68;;;17.80;46.80;;;;;;6175350;23;20168;-85
2023/03/14 05:06:49;;;;;;;1.13;0.50;;;17.80;46.70;;;;;;6199125;23;20146;-85
2023/03/14 05:09:15;;;;;;;1.10;0.55;;;17.80;46.70;;;;;;6224861;23;20214;-86
2023/03/14 05:11:41;;;;;;;1.10;0.70;;;17.80;46.70;;;;;;6174715;23;20149;-85
2023/03/14 05:14:09;;;;;;;1.35;0.70;;;17.80;46.60;;;;;;6199218;23;20141;-85
2023/03/14 05:16:35;;;;;;;0.77;0.60;;;17.80;46.70;;;;;;6174115;23;20213;-85
2023/03/14 05:19:01;;;;;;;1.10;0.70;;;17.80;46.60;;;;;;6225003;23;20201;-86
2023/03/14 05:21:35;;;;;;;0.70;0.50;;;17.90;46.60;;;;;;6174723;23;20177;-85
2023/03/14 05:24:03;;;;;;;0.75;0.60;;;17.80;46.60;;;;;;6199053;23;20141;-85
2023/03/14 05:26:28;;;;;;;0.70;0.70;;;17.90;46.50;;;;;;6174475;23;20146;-86
2023/03/14 05:28:55;;;;;;;1.15;0.70;;;17.80;46.70;;;;;;6198968;23;20627;-86
2023/03/14 05:31:21;;;;;;;1.05;0.47;;;17.80;46.70;;;;;;6174416;23;20145;-86
2023/03/14 05:33:52;;;;;;;1.88;0.68;;;17.90;46.70;;;;;;6174197;23;20155;-86
2023/03/14 05:36:19;;;;;;;1.42;0.70;;;17.80;47.30;;;;;;6199741;23;20145;-86
2023/03/14 05:38:46;;;;;;;1.45;0.60;;;17.80;46.60;;;;;;6198999;23;20168;-85
2023/03/14 05:41:12;;;;;;;0.90;0.50;;;17.80;46.60;;;;;;6198508;23;20545;-85
2023/03/14 05:43:42;;;;;;;0.80;0.60;;;17.80;46.70;;;;;;6174284;23;20145;-85
2023/03/14 05:46:10;;;;;;;0.70;0.40;;;17.70;46.70;;;;;;6199601;23;20615;-86
2023/03/14 05:48:36;;;;;;;0.73;0.60;;;17.80;46.80;;;;;;6173948;23;20141;-86
2023/03/14 05:51:02;;;;;;;1.02;0.70;;;17.80;46.60;;;;;;6174232;23;20532;-85
2023/03/14 05:53:34;;;;;;;1.05;0.68;;;17.80;46.70;;;;;;6173795;23;20145;-86
2023/03/14 05:56:01;;;;;;;0.73;0.52;;;17.80;46.60;;;;;;6199207;23;20152;-85
2023/03/14 05:58:26;;;;;;;0.73;0.55;;;17.80;46.60;;;;;;6198589;23;20568;-86
2023/03/14 06:01:02;;;;;;;0.80;0.52;;;17.80;46.70;;;;;;6223616;23;20226;-86
2023/03/14 06:03:40;;;;;;;0.90;0.60;;;17.80;46.60;;;;;;6200471;23;20136;-86
2023/03/14 06:06:06;;;;;;;1.10;0.60;;;17.80;46.80;;;;;;6224959;23;20211;-86
2023/03/14 06:08:32;;;;;;;1.00;0.70;;;17.80;46.70;;;;;;6175710;23;20138;-86
2023/03/14 06:10:58;;;;;;;0.65;0.60;;;17.80;46.60;;;;;;6176186;23;20180;-86
2023/03/14 06:13:24;;;;;;;1.48;0.60;;;17.80;46.60;;;;;;6176169;23;20152;-86
2023/03/14 06:15:52;;;;;;;2.65;0.73;;;17.80;46.70;;;;;;6201350;23;20129;-85
2023/03/14 06:18:19;;;;;;;0.73;0.70;;;17.80;46.80;;;;;;6175580;23;20636;-86
2023/03/14 06:20:44;;;;;;;1.13;0.60;;;17.80;46.80;;;;;;6200674;23;20165;-85
2023/03/14 06:23:12;;;;;;;0.88;0.82;;;17.80;46.70;;;;;;6201614;23;20518;-85
2023/03/14 06:25:41;;;;;;;0.60;0.55;;;17.80;46.70;;;;;;6200408;23;20136;-85
2023/03/14 06:28:06;;;;;;;0.68;0.68;;;17.80;46.70;;;;;;6226631;23;20137;-85
2023/03/14 06:30:32;;;;;;;3.92;0.80;;;17.80;46.70;;;;;;6201416;23;20130;-85
2023/03/14 06:33:00;;;;;;;2.20;0.70;;;17.80;46.70;;;;;;6176212;23;20164;-86
2023/03/14 06:35:29;;;;;;;1.13;0.68;;;17.80;46.70;;;;;;6175520;23;20141;-86
2023/03/14 06:37:55;;;;;;;0.90;0.60;;;17.80;46.60;;;;;;6253906;23;20187;-86
2023/03/14 06:40:21;;;;;;;0.68;0.50;;;17.80;46.60;;;;;;6223301;23;20185;-85
2023/03/14 06:42:50;;;;;;;0.95;0.60;;;17.80;46.50;;;;;;6176160;23;20161;-86
2023/03/14 06:45:25;;;;;;;0.43;0.40;;;17.80;46.60;;;;;;6200073;23;20138;-85
2023/03/14 06:47:53;;;;;;;0.90;0.63;;;17.80;46.50;;;;;;6226294;23;20134;-85
2023/03/14 06:50:22;;;;;;;1.15;0.60;;;17.80;46.60;;;;;;6226072;23;20130;-86
2023/03/14 06:52:50;;;;;;;1.77;0.90;;;17.70;46.70;;;;;;6201547;23;20146;-85
2023/03/14 06:55:17;;;;;;;1.52;0.73;;;17.70;46.60;;;;;;6177233;23;20225;-86
2023/03/14 06:57:43;;;;;;;1.00;0.70;;;17.80;46.80;;;;;;6200373;23;20145;-85
2023/03/14 07:00:11;;;;;;;1.13;0.68;;;17.80;46.70;;;;;;6177151;23;20165;-85
2023/03/14 07:02:40;;;;;;;0.75;0.70;;;17.80;46.80;;;;;;6201467;23;20153;-85
2023/03/14 07:05:10;;;;;;;1.75;0.68;;;17.80;46.80;;;;;;6227052;23;20467;-85
2023/03/14 07:07:35;;;;;;;0.80;0.50;;;17.80;46.70;;;;;;6202139;23;20222;-85
2023/03/14 07:10:02;;;;;;;0.73;0.60;;;17.80;46.70;;;;;;6203458;23;20165;-86
2023/03/14 07:12:29;;;;;;;0.70;0.50;;;17.80;46.60;;;;;;6202702;23;20133;-85
2023/03/14 07:14:57;;;;;;;0.50;0.40;;;17.80;46.50;;;;;;6200487;23;20141;-85
2023/03/14 07:17:37;;;;;;;2.47;0.70;;;17.80;46.60;;;;;;6199292;23;20180;-85
2023/03/14 07:20:11;;;;;;;0.88;0.65;;;17.90;46.40;;;;;;6199172;23;20149;-85
2023/03/14 07:22:39;;;;;;;1.40;0.50;;;17.90;46.40;;;;;;6223803;23;20164;-85
2023/03/14 07:25:09;;;;;;;1.05;0.70;;;17.80;46.40;;;;;;6252224;23;20193;-85
2023/03/14 07:27:44;;;;;;;1.20;0.60;;;17.80;46.40;;;;;;6225608;23;20129;-86
2023/03/14 07:30:14;;;;;;;1.05;0.60;;;17.90;46.40;;;;;;6200915;23;20141;-85
2023/03/14 07:32:41;;;;;;;2.53;0.68;;;17.90;46.30;;;;;;6254369;23;20161;-85
2023/03/14 07:35:07;;;;;;;0.65;0.43;;;17.90;46.20;;;;;;6177138;23;20146;-86
2023/03/14 07:37:34;;;;;;;0.70;0.60;;;17.90;46.40;;;;;;6205487;23;20161;-87
2023/03/14 07:39:59;;;;;;;2.03;0.63;;;17.90;46.10;;;;;;6176386;23;20197;-86
2023/03/14 07:42:25;;;;;;;0.98;0.55;;;18.00;46.30;;;;;;6202104;23;20505;-86
2023/03/14 07:44:52;;;;;;;0.80;0.40;;;18.00;46.20;;;;;;6203585;23;20133;-86
2023/03/14 07:47:19;;;;;;;0.57;0.45;;;18.00;46.10;;;;;;6176056;23;20267;-86
2023/03/14 07:49:48;;;;;;;0.95;0.50;;;18.00;46.10;;;;;;6175729;23;20573;-86
2023/03/14 07:52:15;;;;;;;1.55;0.57;;;18.10;45.70;;;;;;6200300;23;20224;-87
2023/03/14 07:54:45;;;;;;;0.50;0.50;;;18.20;45.90;;;;;;6184274;23;20209;-85
2023/03/14 07:57:16;;;;;;;0.93;0.60;;;18.20;45.80;;;;;;6210068;23;20214;-87
2023/03/14 07:59:45;;;;;;;1.25;0.47;;;18.20;45.60;;;;;;6183608;23;20208;-87
2023/03/14 08:02:17;;;;;;;1.58;0.55;;;18.30;45.60;;;;;;6185320;23;20177;-87
2023/03/14 08:04:45;;;;;;;1.15;0.47;;;18.30;45.40;;;;;;6211579;23;20173;-87
2023/03/14 08:07:11;;;;;;;3.28;0.70;;;18.30;45.40;;;;;;6185762;23;20145;-86
2023/03/14 08:09:42;;;;;;;3.28;1.30;;;18.40;45.20;;;;;;6148411;23;20170;-86
2023/03/14 08:12:10;;;;;;;4.35;0.77;;;18.30;45.50;;;;;;6123619;23;20167;-87
2023/03/14 08:14:36;;;;;;;5.32;0.80;;;18.30;45.60;;;;;;6116594;23;20155;-88
2023/03/14 08:17:02;;;;;;;8.18;0.77;;;18.30;45.60;;;;;;6111282;23;20173;-86
2023/03/14 08:19:32;;;;;;;2.40;0.50;;;18.30;45.20;;;;;;6087342;23;20630;-86
2023/03/14 08:21:58;;;;;;;4.00;0.70;;;18.30;45.00;;;;;;6159081;23;20174;-85
2023/03/14 08:24:23;;;;;;;2.78;0.52;;;18.40;45.40;;;;;;6134048;23;20233;-85
2023/03/14 08:26:51;;;;;;;0.90;0.47;;;18.40;45.60;;;;;;6110641;23;20155;-85
2023/03/14 08:29:17;;;;;;;3.05;0.50;;;18.40;45.40;;;;;;6113611;23;20158;-85
2023/03/14 08:31:44;;;;;;;3.97;0.63;;;18.40;45.50;;;;;;6164262;23;20140;-86
2023/03/14 08:34:13;;;;;;;4.00;0.90;;;18.40;45.40;;;;;;6094716;23;20179;-87
2023/03/14 08:36:39;;;;;;;5.68;0.70;;;18.40;45.20;;;;;;6119213;23;20148;-86
2023/03/14 08:39:07;;;;;;;3.90;1.00;;;18.50;45.20;;;;;;6094677;23;20270;-87
2023/03/14 08:41:33;;;;;;;2.40;0.50;;;18.60;45.00;;;;;;6175752;23;20185;-87
2023/03/14 08:43:58;;;;;;;6.70;0.68;;;18.60;44.90;;;;;;6209546;23;20133;-87
2023/03/14 08:46:25;;;;;;;3.75;1.10;;;18.60;45.00;;;;;;6184941;23;20145;-87
2023/03/14 08:48:55;;;;;;;8.13;0.95;;;18.60;45.80;;;;;;6209347;23;20145;-86
2023/03/14 08:51:21;;;;;;;7.05;0.85;;;18.60;45.10;;;;;;6166338;23;20194;-87
2023/03/14 08:53:47;;;;;;;10.45;1.13;;;18.60;45.10;;;;;;6119561;23;20155;-86
2023/03/14 08:56:19;;;;;;;4.65;1.00;;;18.60;45.10;;;;;;6137158;23;20163;-85
2023/03/14 08:58:45;;;;;;;9.30;1.30;;;18.60;45.10;;;;;;6114056;23;20166;-85
2023/03/14 09:01:14;;;;;;;4.22;0.80;;;18.60;45.30;;;;;;6139919;23;20253;-86
2023/03/14 09:03:47;;;;;;;7.43;0.80;;;18.60;45.50;;;;;;6167514;23;20482;-87
2023/03/14 09:06:13;;;;;;;8.63;0.80;;;18.50;46.20;;;;;;6115999;23;20151;-86
2023/03/14 09:08:40;;;;;;;2.85;1.02;;;18.60;45.40;;;;;;6141914;23;20155;-85
2023/03/14 09:11:09;;;;;;;3.78;0.88;;;18.60;45.30;;;;;;6116467;23;20155;-87
2023/03/14 09:13:36;;;;;;;7.63;0.70;;;18.70;45.20;;;;;;6116104;23;20183;-87
2023/03/14 09:16:04;;;;;;;3.45;0.70;;;18.70;45.30;;;;;;6141197;23;20139;-88
2023/03/14 09:18:33;;;;;;;3.75;0.80;;;18.60;45.40;;;;;;6081952;23;20178;-86
2023/03/14 09:21:01;;;;;;;5.88;0.80;;;18.60;45.30;;;;;;6063874;23;20176;-85
2023/03/14 09:23:27;;;;;;;3.80;0.52;;;18.70;45.10;;;;;;6120682;23;20154;-86
2023/03/14 09:25:56;;;;;;;5.60;0.90;;;18.80;45.10;;;;;;6198220;23;20200;-87
2023/03/14 09:28:22;;;;;;;6.18;0.77;;;18.80;45.40;;;;;;6197912;23;20141;-86
2023/03/14 09:30:51;;;;;;;7.90;0.60;;;18.80;45.20;;;;;;6198339;23;20182;-86
2023/03/14 09:33:23;;;;;;;4.68;1.00;;;18.70;45.20;;;;;;6174333;23;20259;-86
2023/03/14 09:35:53;;;;;;;4.43;0.43;;;18.70;45.60;;;;;;6173651;23;20154;-86
2023/03/14 09:38:20;;;;;;;5.97;0.60;;;18.70;45.50;;;;;;6173363;23;20206;-86
2023/03/14 09:41:13;;;;;;;6.07;0.80;;;18.70;45.40;;;;;;6168617;23;20199;-89
2023/03/14 09:43:38;;;;;;;4.85;0.57;;;18.80;45.70;;;;;;6116820;23;20152;-87
2023/03/14 09:46:05;;;;;;;3.58;0.60;;;18.70;45.90;;;;;;6092683;23;20159;-86
2023/03/14 09:48:32;;;;;;;3.28;0.82;;;18.70;45.60;;;;;;6088666;23;20144;-86
2023/03/14 09:51:06;;;;;;;2.95;0.52;;;18.70;45.30;;;;;;6093965;23;20240;-86
2023/03/14 09:53:45;;;;;;;4.00;0.70;;;18.80;45.40;;;;;;6092051;23;20152;-86
2023/03/14 09:56:24;;;;;;;0.80;0.40;;;18.80;45.10;;;;;;6132742;23;20190;-86
2023/03/14 09:59:15;;;;;;;2.28;0.57;;;18.90;45.20;;;;;;6119542;23;20230;-88
2023/03/14 10:01:45;;;;;;;1.50;0.45;;;18.90;45.20;;;;;;6119119;23;20247;-84
2023/03/14 10:04:15;;;;;;;2.05;0.40;;;18.90;44.90;;;;;;6119671;23;20179;-85
2023/03/14 10:06:41;;;;;;;1.92;0.57;;;18.90;45.00;;;;;;6118441;23;20173;-89
2023/03/14 10:09:15;;;;;;;2.58;0.60;;;18.90;44.80;;;;;;6116215;23;20155;-86
2023/03/14 10:11:41;;;;;;;1.55;0.60;;;19.00;44.90;;;;;;6116705;23;20162;-87
2023/03/14 10:14:09;;;;;;;1.50;0.40;;;19.00;44.60;;;;;;6136147;23;20139;-86
2023/03/14 10:16:43;;;;;;;2.45;0.50;;;19.00;44.70;;;;;;6111675;23;20614;-86
2023/03/14 10:19:16;;;;;;;2.53;0.40;;;18.90;44.70;;;;;;6112922;23;20643;-87
2023/03/14 10:21:53;;;;;;;2.35;0.40;;;18.90;44.90;;;;;;6111555;23;20211;-87
2023/03/14 10:24:28;;;;;;;3.17;0.60;;;19.00;44.90;;;;;;6090144;23;20147;-85
2023/03/14 10:26:58;;;;;;;0.73;0.40;;;18.90;45.10;;;;;;6113257;23;20171;-85
2023/03/14 10:29:23;;;;;;;1.35;0.40;;;18.90;44.80;;;;;;6111159;23;20152;-85
2023/03/14 10:31:56;;;;;;;1.65;0.50;;;18.90;44.60;;;;;;6134522;23;20143;-85
2023/03/14 10:34:24;;;;;;;4.03;0.50;;;19.00;44.60;;;;;;6136462;23;20171;-85
2023/03/14 10:36:54;;;;;;;1.05;0.40;;;19.00;44.90;;;;;;6088336;23;20158;-84
2023/03/14 10:39:26;;;;;;;2.47;0.60;;;19.00;44.60;;;;;;6090984;23;20155;-85
2023/03/14 10:41:54;;;;;;;1.38;0.40;;;18.90;44.50;;;;;;6120202;23;20182;-85
2023/03/14 10:44:23;;;;;;;1.42;0.50;;;19.00;44.60;;;;;;6112977;23;20150;-86
2023/03/14 10:47:03;;;;;;;2.38;0.50;;;19.00;44.60;;;;;;6138253;23;20135;-85
2023/03/14 10:49:33;;;;;;;2.55;0.50;;;19.00;44.20;;;;;;6139120;23;20174;-86
2023/03/14 10:52:12;;;;;;;0.95;0.50;;;19.00;44.20;;;;;;6114558;23;20165;-86
2023/03/14 10:54:38;;;;;;;3.13;0.50;;;19.00;44.50;;;;;;6117217;23;20150;-85
2023/03/14 10:57:06;;;;;;;1.00;0.40;;;19.00;44.50;;;;;;6139257;23;20165;-86
2023/03/14 10:59:36;;;;;;;2.30;0.28;;;19.00;44.90;;;;;;6139946;23;20139;-86
2023/03/14 11:02:33;;;;;;;1.92;0.40;;;19.00;44.80;;;;;;6114436;23;20590;-86
2023/03/14 11:05:07;;;;;;;0.98;0.38;;;18.90;45.00;;;;;;6144081;23;20142;-85
2023/03/14 11:07:42;;;;;;;1.85;0.50;;;19.00;44.70;;;;;;6143013;23;20158;-86
2023/03/14 11:10:34;;;;;;;2.10;0.40;;;18.90;44.90;;;;;;6114921;23;20153;-86
2023/03/14 11:13:22;;;;;;;1.55;0.30;;;19.00;45.00;;;;;;6170310;23;20177;-87
2023/03/14 11:16:03;;;;;;;0.50;0.20;;;18.90;44.80;;;;;;6144883;23;20139;-86
2023/03/14 11:18:48;;;;;;;2.17;0.50;;;18.90;44.80;;;;;;6140054;23;20154;-86
2023/03/14 11:21:26;;;;;;;0.65;0.40;;;18.90;45.00;;;;;;6146608;23;20261;-85
2023/03/14 11:24:18;;;;;;;0.95;0.40;;;18.90;45.00;;;;;;6145404;23;20239;-86
2023/03/14 11:27:23;;;;;;;0.95;0.43;;;18.90;44.80;;;;;;6217893;23;20131;-86
2023/03/14 11:30:06;;;;;;;0.60;0.38;;;18.90;44.90;;;;;;6219625;23;20140;-84
2023/03/14 11:32:41;;;;;;;0.75;0.30;;;18.90;45.00;;;;;;6172432;23;20150;-86
2023/03/14 11:35:32;;;;;;;1.85;0.40;;;18.90;44.80;;;;;;6171974;23;20229;-85
2023/03/14 11:38:11;;;;;;;1.02;0.40;;;18.90;44.50;;;;;;6208101;23;20153;-85
2023/03/14 11:40:38;;;;;;;1.85;0.30;;;18.90;44.60;;;;;;6173601;23;20193;-86
2023/03/14 11:43:13;;;;;;;0.40;0.30;;;18.90;44.50;;;;;;6172548;23;20142;-87
2023/03/14 11:45:40;;;;;;;0.75;0.30;;;19.00;44.50;;;;;;6197106;23;20221;-86
2023/03/14 11:48:43;;;;;;;0.43;0.38;;;18.90;44.50;;;;;;6170022;23;20142;-86
2023/03/14 11:51:21;;;;;;;0.90;0.30;;;18.90;44.50;;;;;;6198194;23;20146;-86
2023/03/14 11:53:54;;;;;;;1.58;0.38;;;18.90;44.30;;;;;;6174043;23;20146;-86
2023/03/14 11:56:29;;;;;;;0.30;0.30;;;18.90;44.40;;;;;;6175023;23;20153;-86
2023/03/14 11:58:58;;;;;;;1.10;0.20;;;18.90;44.30;;;;;;6192830;23;20168;-85
2023/03/14 12:01:27;;;;;;;0.30;0.30;;;19.00;44.10;;;;;;6167144;23;20249;-85
2023/03/14 12:04:01;;;;;;;0.20;0.20;;;19.00;44.40;;;;;;6194235;23;20130;-86
2023/03/14 12:06:46;;;;;;;0.75;0.40;;;19.00;44.10;;;;;;6195524;23;20142;-86
2023/03/14 12:09:11;;;;;;;0.35;0.20;;;19.10;44.50;;;;;;6193356;23;20142;-86
2023/03/14 12:11:56;;;;;;;0.30;0.30;;;19.10;44.10;;;;;;6169720;23;20150;-85
2023/03/14 12:14:27;;;;;;;0.40;0.40;;;19.10;44.60;;;;;;6195826;23;20173;-84
2023/03/14 12:16:58;;;;;;;0.57;0.30;;;19.10;43.90;;;;;;6197857;23;20507;-85
2023/03/14 12:19:28;;;;;;;0.40;0.35;;;19.10;43.70;;;;;;6196752;23;20150;-85
2023/03/14 12:22:12;;;;;;;0.45;0.40;;;19.20;43.30;;;;;;6169576;23;20258;-85
2023/03/14 12:24:39;;;;;;;0.55;0.40;;;19.10;43.40;;;;;;6193651;23;20484;-85
2023/03/14 12:27:08;;;;;;;0.50;0.32;;;19.00;43.50;;;;;;6192253;23;20150;-85
2023/03/14 12:29:40;;;;;;;1.20;0.50;;;19.10;43.50;;;;;;6192291;23;20170;-85
2023/03/14 12:32:20;;;;;;;0.65;0.30;;;19.00;43.50;;;;;;6168601;23;20150;-84
2023/03/14 12:34:46;;;;;;;0.32;0.32;;;19.10;43.20;;;;;;6218193;23;20138;-86
2023/03/14 12:37:26;;;;;;;0.93;0.38;;;19.10;43.30;;;;;;6193812;23;20138;-85
2023/03/14 12:40:17;;;;;;;0.30;0.30;;;19.10;43.20;;;;;;6177014;23;20247;-86
2023/03/14 12:43:01;;;;;;;1.15;0.30;;;19.10;43.20;;;;;;6205468;23;20169;-87
2023/03/14 12:45:32;;;;;;;0.20;0.20;;;19.20;43.00;;;;;;6184787;23;20149;-86
2023/03/14 12:48:11;;;;;;;0.50;0.40;;;19.20;42.80;;;;;;6200546;23;20145;-86
2023/03/14 12:50:44;;;;;;;0.30;0.30;;;19.20;42.90;;;;;;6199628;23;20156;-85
2023/03/14 12:53:44;;;;;;;0.30;0.30;;;19.20;43.30;;;;;;6197451;23;20136;-86
2023/03/14 12:56:23;;;;;;;1.27;0.40;;;19.10;44.00;;;;;;6207555;23;20452;-85
2023/03/14 12:59:11;;;;;;;1.15;0.30;;;19.00;44.20;;;;;;6198368;23;20133;-86
2023/03/14 13:01:37;;;;;;;0.65;0.30;;;19.00;44.00;;;;;;6221627;23;20189;-86
2023/03/14 13:04:08;;;;;;;0.93;0.32;;;19.00;43.80;;;;;;6198455;23;20125;-86
2023/03/14 13:06:53;;;;;;;0.30;0.30;;;19.00;43.70;;;;;;6199995;23;20145;-86